ADDS METAR Data INFO
IDs: Format: Raw Decoded Include TAF

Data at: 0301 UTC 21 Jan 2018

K5H4 210255Z AUTO 27005KT 10SM CLR M04/M05 A2992 RMK AO2
K5H4 210235Z AUTO 27004KT 10SM CLR M06/M07 A2992 RMK AO2
K5H4 210215Z AUTO 27006KT 10SM CLR M03/M05 A2991 RMK AO2
K5H4 210155Z AUTO 27006KT 10SM CLR M03/M05 A2991 RMK AO2
K5H4 210135Z AUTO 27007KT 10SM CLR M02/M04 A2991 RMK AO2
K5H4 210115Z AUTO 27006KT 10SM CLR M02/M05 A2991 RMK AO2
K5H4 210055Z AUTO 26006KT 10SM CLR M02/M04 A2991 RMK AO2
K5H4 210035Z AUTO 26005KT 10SM CLR M02/M04 A2990 RMK AO2
K5H4 210015Z AUTO 26007KT 10SM CLR M02/M04 A2989 RMK AO2
K5H4 202355Z AUTO 25006KT 10SM CLR M02/M03 A2988 RMK AO2
K5H4 202335Z AUTO 23007KT 10SM CLR M01/M03 A2988 RMK AO2
K5H4 202315Z AUTO 25007KT 10SM CLR 00/M02 A2988 RMK AO2
K5H4 202255Z AUTO 24007KT 10SM CLR 01/M02 A2987 RMK AO2
K5H4 202235Z AUTO 26010KT 10SM CLR 02/M02 A2986 RMK AO2
K5H4 202215Z AUTO 25010KT 10SM CLR 02/M02 A2986 RMK AO2
K5H4 202155Z AUTO 26008KT 10SM CLR 03/M02 A2985 RMK AO2
K5H4 202135Z AUTO 26011KT 10SM CLR 03/M03 A2984 RMK AO2
K5H4 202115Z AUTO 26009KT 10SM CLR 03/M03 A2983 RMK AO2
K5H4 202055Z AUTO 26011KT 10SM CLR 03/M02 A2983 RMK AO2
K5H4 202035Z AUTO 27011KT 10SM CLR 03/M03 A2983 RMK AO2
K5H4 202015Z AUTO 27010KT 10SM CLR 03/M02 A2983 RMK AO2
K5H4 201955Z AUTO 27009KT 10SM CLR 03/M02 A2982 RMK AO2
K5H4 201935Z AUTO 28012KT 10SM CLR 03/M03 A2982 RMK AO2
K5H4 201915Z AUTO 27011KT 10SM CLR 03/M02 A2982 RMK AO2
K5H4 201855Z AUTO 27012KT 10SM CLR 02/M03 A2983 RMK AO2
K5H4 201835Z AUTO 28013KT 10SM CLR 02/M03 A2983 RMK AO2
K5H4 201815Z AUTO 27012G17KT 10SM CLR 02/M02 A2983 RMK AO2
K5H4 201755Z AUTO 26013KT 10SM CLR 02/M02 A2984 RMK AO2
K5H4 201735Z AUTO 27009KT 10SM CLR 01/M02 A2983 RMK AO2
K5H4 201715Z AUTO 26007KT 10SM CLR 01/M03 A2984 RMK AO2
K5H4 201655Z AUTO 26009KT 10SM CLR 00/M03 A2983 RMK AO2
K5H4 201635Z AUTO 27009KT 10SM CLR 00/M03 A2983 RMK AO2
K5H4 201615Z AUTO 25010KT 10SM CLR M01/M03 A2982 RMK AO2
K5H4 201555Z AUTO 27008KT 10SM CLR M01/M03 A2982 RMK AO2
K5H4 201535Z AUTO 28007KT 10SM CLR M01/M03 A2982 RMK AO2
K5H4 201515Z AUTO 26006KT 10SM CLR M01/M03 A2981 RMK AO2
K5H4 201455Z AUTO 25009KT 10SM CLR M02/M03 A2980 RMK AO2
K5H4 201435Z AUTO 26007KT 10SM CLR M02/M03 A2979 RMK AO2
K5H4 201415Z AUTO 26010KT 10SM CLR M01/M03 A2979 RMK AO2
K5H4 201355Z AUTO 25011KT 10SM CLR M02/M03 A2978 RMK AO2
K5H4 201335Z AUTO 25011KT 10SM FEW120 M02/M03 A2977 RMK AO2
K5H4 201315Z AUTO 25011KT 10SM FEW120 M02/M03 A2977 RMK AO2
K5H4 201255Z AUTO 25009KT 10SM CLR M03/M04 A2976 RMK AO2
K5H4 201235Z AUTO 25008KT 10SM SCT120 M03/M04 A2976 RMK AO2
K5H4 201215Z AUTO 25009KT 10SM BKN120 M03/M04 A2975 RMK AO2
K5H4 201155Z AUTO 25008KT 10SM CLR M03/M04 A2975 RMK AO2
K5H4 201135Z AUTO 25006KT 10SM CLR M03/M04 A2975 RMK AO2
K5H4 201115Z AUTO 26005KT 10SM FEW120 M03/M04 A2975 RMK AO2
K5H4 201055Z AUTO 26007KT 10SM BKN110 M02/M04 A2975 RMK AO2
K5H4 201035Z AUTO 27006KT 10SM BKN110 M02/M04 A2974 RMK AO2
K5H4 201015Z AUTO 26008KT 10SM BKN090 BKN120 M02/M04 A2974 RMK AO2
K5H4 200955Z AUTO 26008KT 10SM OVC095 M02/M04 A2975 RMK AO2
K5H4 200935Z AUTO 25008KT 10SM OVC095 M02/M04 A2975 RMK AO2
K5H4 200915Z AUTO 27009KT 10SM OVC095 M02/M04 A2976 RMK AO2
K5H4 200855Z AUTO 25010KT 10SM OVC100 M02/M04 A2975 RMK AO2
K5H4 200835Z AUTO 25009KT 10SM OVC110 M03/M04 A2975 RMK AO2
K5H4 200815Z AUTO 24008KT 10SM OVC110 M04/M04 A2974 RMK AO2
K5H4 200755Z AUTO 22006KT 10SM OVC100 M04/M05 A2974 RMK AO2
K5H4 200735Z AUTO 23006KT 10SM OVC100 M06/M06 A2974 RMK AO2
K5H4 200715Z AUTO 22008KT 10SM BKN100 M06/M06 A2973 RMK AO2
K5H4 200655Z AUTO 22008KT 10SM OVC110 M06/M07 A2972 RMK AO2
K5H4 200635Z AUTO 23008KT 10SM BKN100 OVC120 M06/M07 A2972 RMK AO2
K5H4 200615Z AUTO 23006KT 10SM BKN100 M06/M07 A2972 RMK AO2
K5H4 200555Z AUTO 23008KT 10SM FEW100 FEW120 M06/M07 A2972 RMK AO2
K5H4 200535Z AUTO 21007KT 10SM CLR M06/M06 A2972 RMK AO2
K5H4 200515Z AUTO 24005KT 10SM CLR M05/M06 A2971 RMK AO2
K5H4 200455Z AUTO 23004KT 10SM CLR M05/M06 A2970 RMK AO2
K5H4 200435Z AUTO 23007KT 10SM CLR M06/M06 A2969 RMK AO2
K5H4 200415Z AUTO 25006KT 10SM CLR M05/M06 A2968 RMK AO2
K5H4 200355Z AUTO 23006KT 10SM CLR M05/M06 A2968 RMK AO2
K5H4 200335Z AUTO 23004KT 10SM CLR M04/M05 A2967 RMK AO2
K5H4 200315Z AUTO 23004KT 10SM CLR M03/M04 A2967 RMK AO2
K5H4 200255Z AUTO 28007KT 10SM CLR M01/M03 A2966 RMK AO2
K5H4 200235Z AUTO 27008KT 10SM CLR M01/M03 A2966 RMK AO2
K5H4 200215Z AUTO 27007KT 10SM CLR M02/M03 A2965 RMK AO2
K5H4 200155Z AUTO 25007KT 10SM CLR M01/M03 A2964 RMK AO2
K5H4 200135Z AUTO 25008KT 10SM CLR M01/M02 A2964 RMK AO2
K5H4 200115Z AUTO 26008KT 10SM CLR M01/M02 A2963 RMK AO2
K5H4 200055Z AUTO 26010KT 10SM CLR 00/M02 A2963 RMK AO2
K5H4 200035Z AUTO 26008KT 10SM CLR 01/M01 A2962 RMK AO2
K5H4 200015Z AUTO 27008KT 10SM CLR 01/M01 A2961 RMK AO2
K5H4 192355Z AUTO 27008KT 10SM CLR 01/M01 A2962 RMK AO2
K5H4 192335Z AUTO 26007KT 10SM CLR 01/M01 A2961 RMK AO2
K5H4 192315Z AUTO 25009KT 10SM CLR 02/M01 A2960 RMK AO2
K5H4 192255Z AUTO 27010KT 10SM CLR 03/M01 A2960 RMK AO2
K5H4 192235Z AUTO 27009KT 10SM CLR 03/M01 A2960 RMK AO2
K5H4 192215Z AUTO 27009KT 10SM CLR 03/M00 A2960 RMK AO2
K5H4 192155Z AUTO 28012KT 10SM CLR 04/M01 A2959 RMK AO2
K5H4 192135Z AUTO 28012KT 10SM CLR 04/M01 A2958 RMK AO2
K5H4 192115Z AUTO 28014G19KT 10SM CLR 04/M01 A2958 RMK AO2
K5H4 192055Z AUTO 28013KT 10SM CLR 04/M01 A2957 RMK AO2
K5H4 192035Z AUTO 28013KT 10SM CLR 04/M01 A2956 RMK AO2
K5H4 192015Z AUTO 28011G18KT 10SM CLR 04/M01 A2956 RMK AO2
K5H4 191955Z AUTO 27014KT 10SM CLR 04/M01 A2956 RMK AO2
K5H4 191935Z AUTO 27011G17KT 10SM CLR 04/M00 A2955 RMK AO2
K5H4 191915Z AUTO 27012KT 10SM CLR 04/M00 A2955 RMK AO2
K5H4 191855Z AUTO 27012KT 10SM FEW120 04/M00 A2955 RMK AO2
K5H4 191835Z AUTO 28012KT 10SM CLR 05/M00 A2955 RMK AO2
K5H4 191815Z AUTO 28014G19KT 10SM CLR 05/M00 A2955 RMK AO2
K5H4 191755Z AUTO 28013G18KT 10SM CLR 05/M00 A2956 RMK AO2
K5H4 191735Z AUTO 27010KT 10SM CLR 04/M00 A2955 RMK AO2
K5H4 191715Z AUTO 28014KT 10SM -UP CLR 04/M01 A2955 RMK AO2
K5H4 191655Z AUTO 28011KT 10SM FEW100 04/M01 A2955 RMK AO2
K5H4 191635Z AUTO 28011KT 10SM BKN100 03/M00 A2953 RMK AO2
K5H4 191615Z AUTO 27009KT 10SM FEW060 SCT100 03/M00 A2953 RMK AO2
K5H4 191555Z AUTO 26012KT 10SM FEW036 FEW049 SCT065 03/M00 A2952 RMK AO2
K5H4 191535Z AUTO 27011KT 10SM FEW050 SCT060 BKN090 02/M01 A2952 RMK AO2
K5H4 191515Z AUTO 23007KT 10SM SCT120 01/M01 A2949 RMK AO2